Weather at San Antonio International Airport

Public forecast

Using degrees Fahrenheit for public forecast. Weather courtesy of forecast.io.

Current aviation weather report (METAR) for San Antonio International Airport

2024/04/18 00:51 (retrieved 1 hour ago)

KSAT 180051Z 11009KT 10SM FEW036 OVC046 26/21 A2990 RMK AO2 SLP106 T02610206

Closest aviation forecast (TAF) to San Antonio International Airport

Forecast is more than 12 hours old.

Closest forecast is Randolph Air Force Base, 10.0 nm (18.5 km) E.

2024/04/17 10:09 (retrieved 16 hours ago)

TAF KRND 171003Z 1710/1816 VRB06KT 1600 -DZ BR SCT001 BKN003 OVC007 QNH2985INS TEMPO 1712/1715 3200 -DZ BR SCT002 SCT005 OVC007 BECMG 1716/1717 14007KT 4800 -DZ BR SCT014 OVC018 QNH2990INS TEMPO 1716/1718 BKN013 OVC020 BECMG 1720/1721 13009KT 9999 NSW BKN040 BKN200 QNH2985INS BECMG 1802/1803 14012G18KT 8000 BR BKN010 OVC017 QNH2989INS BECMG 1808/1809 VRB06KT 4800 -DZ BR OVC005 QNH2992INS TX28/1721Z TN21/1712Z